sensor_id;sensor_type;location;lat;lon;timestamp;temperature;humidity
32147;DHT22;32190;49.112;8.598;2023-09-18T00:05:09;26.70;50.50
32147;DHT22;32190;49.112;8.598;2023-09-18T00:11:00;26.80;50.60
32147;DHT22;32190;49.112;8.598;2023-09-18T00:16:51;26.80;50.60
32147;DHT22;32190;49.112;8.598;2023-09-18T00:22:42;26.80;50.40
32147;DHT22;32190;49.112;8.598;2023-09-18T00:28:32;26.80;50.40
32147;DHT22;32190;49.112;8.598;2023-09-18T00:34:23;26.80;50.40
32147;DHT22;32190;49.112;8.598;2023-09-18T00:40:14;26.70;50.50
32147;DHT22;32190;49.112;8.598;2023-09-18T00:46:05;26.70;50.50
32147;DHT22;32190;49.112;8.598;2023-09-18T00:51:56;26.70;50.50
32147;DHT22;32190;49.112;8.598;2023-09-18T00:57:46;26.70;50.40
32147;DHT22;32190;49.112;8.598;2023-09-18T01:03:37;26.70;50.50
32147;DHT22;32190;49.112;8.598;2023-09-18T01:09:28;26.70;50.50
32147;DHT22;32190;49.112;8.598;2023-09-18T01:15:25;26.60;50.70
32147;DHT22;32190;49.112;8.598;2023-09-18T01:21:19;26.60;50.70
32147;DHT22;32190;49.112;8.598;2023-09-18T01:27:12;26.60;50.80
32147;DHT22;32190;49.112;8.598;2023-09-18T01:33:04;26.50;50.80
32147;DHT22;32190;49.112;8.598;2023-09-18T01:38:55;26.50;50.90
32147;DHT22;32190;49.112;8.598;2023-09-18T01:44:47;26.50;51.00
32147;DHT22;32190;49.112;8.598;2023-09-18T01:50:38;26.60;51.10
32147;DHT22;32190;49.112;8.598;2023-09-18T01:56:30;26.60;50.80
32147;DHT22;32190;49.112;8.598;2023-09-18T02:02:21;26.60;50.70
32147;DHT22;32190;49.112;8.598;2023-09-18T02:08:11;26.60;50.50
32147;DHT22;32190;49.112;8.598;2023-09-18T02:14:02;26.60;50.60
32147;DHT22;32190;49.112;8.598;2023-09-18T02:19:54;26.60;50.70
32147;DHT22;32190;49.112;8.598;2023-09-18T02:25:44;26.60;50.60
32147;DHT22;32190;49.112;8.598;2023-09-18T02:31:35;26.60;50.40
32147;DHT22;32190;49.112;8.598;2023-09-18T02:37:25;26.60;50.60
32147;DHT22;32190;49.112;8.598;2023-09-18T02:43:16;26.60;50.60
32147;DHT22;32190;49.112;8.598;2023-09-18T02:49:07;26.60;50.60
32147;DHT22;32190;49.112;8.598;2023-09-18T02:54:57;26.60;50.60
32147;DHT22;32190;49.112;8.598;2023-09-18T03:00:49;26.60;50.60
32147;DHT22;32190;49.112;8.598;2023-09-18T03:06:40;26.60;50.60
32147;DHT22;32190;49.112;8.598;2023-09-18T03:12:31;26.60;50.50
32147;DHT22;32190;49.112;8.598;2023-09-18T03:18:22;26.60;50.60
32147;DHT22;32190;49.112;8.598;2023-09-18T03:24:12;26.60;50.50
32147;DHT22;32190;49.112;8.598;2023-09-18T03:30:03;26.60;50.60
32147;DHT22;32190;49.112;8.598;2023-09-18T03:35:54;26.60;50.70
32147;DHT22;32190;49.112;8.598;2023-09-18T03:41:48;26.50;50.60
32147;DHT22;32190;49.112;8.598;2023-09-18T03:47:40;26.60;50.70
32147;DHT22;32190;49.112;8.598;2023-09-18T03:53:32;26.50;50.70
32147;DHT22;32190;49.112;8.598;2023-09-18T03:59:22;26.50;51.00
32147;DHT22;32190;49.112;8.598;2023-09-18T04:05:13;26.40;50.90
32147;DHT22;32190;49.112;8.598;2023-09-18T04:11:03;26.40;51.20
32147;DHT22;32190;49.112;8.598;2023-09-18T04:16:54;26.30;51.50
32147;DHT22;32190;49.112;8.598;2023-09-18T04:22:47;26.30;52.00
32147;DHT22;32190;49.112;8.598;2023-09-18T04:28:40;26.20;52.50
32147;DHT22;32190;49.112;8.598;2023-09-18T04:34:31;26.10;52.60
32147;DHT22;32190;49.112;8.598;2023-09-18T04:40:21;26.00;52.90
32147;DHT22;32190;49.112;8.598;2023-09-18T04:46:14;25.90;53.40
32147;DHT22;32190;49.112;8.598;2023-09-18T04:52:04;25.80;53.70
32147;DHT22;32190;49.112;8.598;2023-09-18T04:57:55;25.80;54.10
32147;DHT22;32190;49.112;8.598;2023-09-18T05:03:48;25.70;54.60
32147;DHT22;32190;49.112;8.598;2023-09-18T05:09:39;25.70;54.20
32147;DHT22;32190;49.112;8.598;2023-09-18T05:15:31;25.60;54.50
32147;DHT22;32190;49.112;8.598;2023-09-18T05:21:21;25.60;54.70
32147;DHT22;32190;49.112;8.598;2023-09-18T05:27:15;25.60;54.80
32147;DHT22;32190;49.112;8.598;2023-09-18T05:33:07;25.50;54.90
32147;DHT22;32190;49.112;8.598;2023-09-18T05:38:58;25.40;54.80
32147;DHT22;32190;49.112;8.598;2023-09-18T05:44:49;25.40;55.20
32147;DHT22;32190;49.112;8.598;2023-09-18T05:50:39;25.30;55.30
32147;DHT22;32190;49.112;8.598;2023-09-18T05:56:32;25.30;55.50
32147;DHT22;32190;49.112;8.598;2023-09-18T06:02:23;25.20;55.60
32147;DHT22;32190;49.112;8.598;2023-09-18T06:08:14;25.20;55.90
32147;DHT22;32190;49.112;8.598;2023-09-18T06:14:05;25.20;56.10
32147;DHT22;32190;49.112;8.598;2023-09-18T06:19:55;25.20;56.10
32147;DHT22;32190;49.112;8.598;2023-09-18T06:25:46;25.20;56.40
32147;DHT22;32190;49.112;8.598;2023-09-18T06:31:37;25.20;56.60
32147;DHT22;32190;49.112;8.598;2023-09-18T06:37:27;25.20;56.70
32147;DHT22;32190;49.112;8.598;2023-09-18T06:43:18;25.10;56.70
32147;DHT22;32190;49.112;8.598;2023-09-18T06:49:09;25.20;56.80
32147;DHT22;32190;49.112;8.598;2023-09-18T06:55:00;25.20;56.80
32147;DHT22;32190;49.112;8.598;2023-09-18T07:00:50;25.10;57.00
32147;DHT22;32190;49.112;8.598;2023-09-18T07:06:41;25.10;57.00
32147;DHT22;32190;49.112;8.598;2023-09-18T07:12:31;25.10;57.10
32147;DHT22;32190;49.112;8.598;2023-09-18T07:18:22;25.10;57.20
32147;DHT22;32190;49.112;8.598;2023-09-18T07:24:13;25.10;57.20
32147;DHT22;32190;49.112;8.598;2023-09-18T07:30:07;25.00;57.40
32147;DHT22;32190;49.112;8.598;2023-09-18T07:35:57;25.00;57.50
32147;DHT22;32190;49.112;8.598;2023-09-18T07:48:31;24.90;57.60
32147;DHT22;32190;49.112;8.598;2023-09-18T07:54:25;25.00;57.30
32147;DHT22;32190;49.112;8.598;2023-09-18T08:00:16;25.00;57.40
32147;DHT22;32190;49.112;8.598;2023-09-18T08:06:07;25.00;57.20
32147;DHT22;32190;49.112;8.598;2023-09-18T08:11:58;25.00;57.20
32147;DHT22;32190;49.112;8.598;2023-09-18T08:17:49;25.00;57.00
32147;DHT22;32190;49.112;8.598;2023-09-18T08:23:39;25.00;57.00
32147;DHT22;32190;49.112;8.598;2023-09-18T08:29:30;25.00;57.10
32147;DHT22;32190;49.112;8.598;2023-09-18T08:35:20;24.90;57.00
32147;DHT22;32190;49.112;8.598;2023-09-18T08:41:12;25.00;57.20
32147;DHT22;32190;49.112;8.598;2023-09-18T08:47:05;25.00;57.10
32147;DHT22;32190;49.112;8.598;2023-09-18T08:52:56;25.10;57.00
32147;DHT22;32190;49.112;8.598;2023-09-18T08:58:48;25.10;56.90
32147;DHT22;32190;49.112;8.598;2023-09-18T09:04:39;25.10;56.90
32147;DHT22;32190;49.112;8.598;2023-09-18T09:10:29;25.10;56.90
32147;DHT22;32190;49.112;8.598;2023-09-18T09:16:20;25.10;57.10
32147;DHT22;32190;49.112;8.598;2023-09-18T09:22:20;25.10;57.10
32147;DHT22;32190;49.112;8.598;2023-09-18T09:28:11;25.10;57.60
32147;DHT22;32190;49.112;8.598;2023-09-18T09:34:02;25.10;57.40
32147;DHT22;32190;49.112;8.598;2023-09-18T09:39:56;25.10;57.70
32147;DHT22;32190;49.112;8.598;2023-09-18T09:45:46;25.10;57.50
32147;DHT22;32190;49.112;8.598;2023-09-18T09:51:37;25.10;57.50
32147;DHT22;32190;49.112;8.598;2023-09-18T09:57:28;25.10;57.80
32147;DHT22;32190;49.112;8.598;2023-09-18T10:03:20;25.10;57.50
32147;DHT22;32190;49.112;8.598;2023-09-18T10:09:12;25.10;57.70
32147;DHT22;32190;49.112;8.598;2023-09-18T10:15:04;25.10;57.60
32147;DHT22;32190;49.112;8.598;2023-09-18T10:21:22;25.10;57.90
32147;DHT22;32190;49.112;8.598;2023-09-18T10:27:22;25.10;58.20
32147;DHT22;32190;49.112;8.598;2023-09-18T10:33:15;25.20;57.60
32147;DHT22;32190;49.112;8.598;2023-09-18T10:39:09;25.30;57.50
32147;DHT22;32190;49.112;8.598;2023-09-18T10:45:01;25.30;57.60
32147;DHT22;32190;49.112;8.598;2023-09-18T10:50:54;25.40;57.20
32147;DHT22;32190;49.112;8.598;2023-09-18T10:56:46;25.40;56.80
32147;DHT22;32190;49.112;8.598;2023-09-18T11:02:38;25.50;56.70
32147;DHT22;32190;49.112;8.598;2023-09-18T11:08:50;25.60;56.60
32147;DHT22;32190;49.112;8.598;2023-09-18T11:14:59;25.60;56.30
32147;DHT22;32190;49.112;8.598;2023-09-18T11:21:07;25.70;55.90
32147;DHT22;32190;49.112;8.598;2023-09-18T11:26:57;25.70;55.80
32147;DHT22;32190;49.112;8.598;2023-09-18T11:32:49;25.90;55.80
32147;DHT22;32190;49.112;8.598;2023-09-18T11:38:56;25.90;55.50
32147;DHT22;32190;49.112;8.598;2023-09-18T11:44:47;26.00;55.30
32147;DHT22;32190;49.112;8.598;2023-09-18T11:50:41;26.10;55.10
32147;DHT22;32190;49.112;8.598;2023-09-18T11:56:35;26.10;55.20
32147;DHT22;32190;49.112;8.598;2023-09-18T12:02:28;26.20;55.10
32147;DHT22;32190;49.112;8.598;2023-09-18T12:08:24;26.30;54.70
32147;DHT22;32190;49.112;8.598;2023-09-18T12:14:20;26.40;54.30
32147;DHT22;32190;49.112;8.598;2023-09-18T12:20:17;26.30;54.00
32147;DHT22;32190;49.112;8.598;2023-09-18T12:26:12;26.30;53.80
32147;DHT22;32190;49.112;8.598;2023-09-18T12:32:03;26.30;53.40
32147;DHT22;32190;49.112;8.598;2023-09-18T12:37:58;26.30;53.40
32147;DHT22;32190;49.112;8.598;2023-09-18T12:43:49;26.30;53.40
32147;DHT22;32190;49.112;8.598;2023-09-18T12:49:40;26.40;53.30
32147;DHT22;32190;49.112;8.598;2023-09-18T12:55:30;26.50;53.20
32147;DHT22;32190;49.112;8.598;2023-09-18T13:01:21;26.60;53.60
32147;DHT22;32190;49.112;8.598;2023-09-18T13:07:14;26.80;52.80
32147;DHT22;32190;49.112;8.598;2023-09-18T13:13:04;26.80;52.40
32147;DHT22;32190;49.112;8.598;2023-09-18T13:18:55;26.80;52.60
32147;DHT22;32190;49.112;8.598;2023-09-18T13:24:55;26.90;52.50
32147;DHT22;32190;49.112;8.598;2023-09-18T13:30:47;27.10;52.20
32147;DHT22;32190;49.112;8.598;2023-09-18T13:36:37;27.20;52.00
32147;DHT22;32190;49.112;8.598;2023-09-18T13:42:29;27.30;52.00
32147;DHT22;32190;49.112;8.598;2023-09-18T13:48:22;27.30;51.70
32147;DHT22;32190;49.112;8.598;2023-09-18T13:54:13;27.40;51.60
32147;DHT22;32190;49.112;8.598;2023-09-18T14:00:04;27.50;51.60
32147;DHT22;32190;49.112;8.598;2023-09-18T14:05:57;27.50;51.50
32147;DHT22;32190;49.112;8.598;2023-09-18T14:11:51;27.60;51.50
32147;DHT22;32190;49.112;8.598;2023-09-18T14:17:41;27.60;51.20
32147;DHT22;32190;49.112;8.598;2023-09-18T14:23:32;27.60;51.20
32147;DHT22;32190;49.112;8.598;2023-09-18T14:36:11;27.70;50.70
32147;DHT22;32190;49.112;8.598;2023-09-18T14:42:02;27.80;50.80
32147;DHT22;32190;49.112;8.598;2023-09-18T14:47:52;27.90;50.80
32147;DHT22;32190;49.112;8.598;2023-09-18T14:53:43;27.90;50.60
32147;DHT22;32190;49.112;8.598;2023-09-18T14:59:34;28.00;50.60
32147;DHT22;32190;49.112;8.598;2023-09-18T15:05:24;28.20;50.40
32147;DHT22;32190;49.112;8.598;2023-09-18T15:11:18;28.30;50.10
32147;DHT22;32190;49.112;8.598;2023-09-18T15:17:09;28.40;50.10
32147;DHT22;32190;49.112;8.598;2023-09-18T15:23:00;28.40;49.90
32147;DHT22;32190;49.112;8.598;2023-09-18T15:28:51;28.50;49.70
32147;DHT22;32190;49.112;8.598;2023-09-18T15:34:41;28.60;49.50
32147;DHT22;32190;49.112;8.598;2023-09-18T15:40:34;28.60;49.20
32147;DHT22;32190;49.112;8.598;2023-09-18T15:46:24;28.60;49.20
32147;DHT22;32190;49.112;8.598;2023-09-18T15:52:15;28.60;49.30
32147;DHT22;32190;49.112;8.598;2023-09-18T15:58:06;28.60;49.40
32147;DHT22;32190;49.112;8.598;2023-09-18T16:03:57;28.50;49.50
32147;DHT22;32190;49.112;8.598;2023-09-18T16:09:48;28.50;49.60
32147;DHT22;32190;49.112;8.598;2023-09-18T16:15:39;28.40;49.60
32147;DHT22;32190;49.112;8.598;2023-09-18T16:21:29;28.30;49.70
32147;DHT22;32190;49.112;8.598;2023-09-18T16:27:22;28.30;49.80
32147;DHT22;32190;49.112;8.598;2023-09-18T16:33:13;28.20;50.00
32147;DHT22;32190;49.112;8.598;2023-09-18T16:39:04;28.10;50.00
32147;DHT22;32190;49.112;8.598;2023-09-18T16:44:55;28.10;50.20
32147;DHT22;32190;49.112;8.598;2023-09-18T16:50:46;28.00;50.20
32147;DHT22;32190;49.112;8.598;2023-09-18T16:56:36;27.90;50.40
32147;DHT22;32190;49.112;8.598;2023-09-18T17:02:27;27.90;50.50
32147;DHT22;32190;49.112;8.598;2023-09-18T17:08:17;27.80;50.60
32147;DHT22;32190;49.112;8.598;2023-09-18T17:14:08;27.70;50.70
32147;DHT22;32190;49.112;8.598;2023-09-18T17:19:59;27.60;50.80
32147;DHT22;32190;49.112;8.598;2023-09-18T17:25:50;27.60;50.90
32147;DHT22;32190;49.112;8.598;2023-09-18T17:31:41;27.60;51.10
32147;DHT22;32190;49.112;8.598;2023-09-18T17:37:33;27.40;50.90
32147;DHT22;32190;49.112;8.598;2023-09-18T17:43:24;27.10;51.80
32147;DHT22;32190;49.112;8.598;2023-09-18T17:49:17;26.40;52.20
32147;DHT22;32190;49.112;8.598;2023-09-18T17:55:08;26.00;53.20
32147;DHT22;32190;49.112;8.598;2023-09-18T18:00:59;25.70;53.20
32147;DHT22;32190;49.112;8.598;2023-09-18T18:06:50;25.50;53.40
32147;DHT22;32190;49.112;8.598;2023-09-18T18:12:43;25.40;53.90
32147;DHT22;32190;49.112;8.598;2023-09-18T18:18:34;25.40;54.10
32147;DHT22;32190;49.112;8.598;2023-09-18T18:24:24;25.40;54.30
32147;DHT22;32190;49.112;8.598;2023-09-18T18:30:15;25.30;54.30
32147;DHT22;32190;49.112;8.598;2023-09-18T18:36:07;25.30;54.50
32147;DHT22;32190;49.112;8.598;2023-09-18T18:41:58;25.20;54.60
32147;DHT22;32190;49.112;8.598;2023-09-18T18:47:48;25.20;54.70
32147;DHT22;32190;49.112;8.598;2023-09-18T18:53:40;25.10;54.70
32147;DHT22;32190;49.112;8.598;2023-09-18T18:59:31;25.10;54.80
32147;DHT22;32190;49.112;8.598;2023-09-18T19:05:21;25.00;54.90
32147;DHT22;32190;49.112;8.598;2023-09-18T19:11:15;24.90;55.00
32147;DHT22;32190;49.112;8.598;2023-09-18T19:17:06;24.80;55.10
32147;DHT22;32190;49.112;8.598;2023-09-18T19:22:56;24.80;55.30
32147;DHT22;32190;49.112;8.598;2023-09-18T19:28:50;24.80;55.30
32147;DHT22;32190;49.112;8.598;2023-09-18T19:34:41;24.70;55.10
32147;DHT22;32190;49.112;8.598;2023-09-18T19:40:31;24.70;55.10
32147;DHT22;32190;49.112;8.598;2023-09-18T19:46:22;24.60;55.10
32147;DHT22;32190;49.112;8.598;2023-09-18T19:52:13;24.50;55.20
32147;DHT22;32190;49.112;8.598;2023-09-18T19:58:04;24.40;55.20
32147;DHT22;32190;49.112;8.598;2023-09-18T20:03:55;24.30;55.40
32147;DHT22;32190;49.112;8.598;2023-09-18T20:09:45;24.30;55.60
32147;DHT22;32190;49.112;8.598;2023-09-18T20:15:36;24.20;55.50
32147;DHT22;32190;49.112;8.598;2023-09-18T20:21:26;24.20;55.60
32147;DHT22;32190;49.112;8.598;2023-09-18T20:27:17;24.10;55.40
32147;DHT22;32190;49.112;8.598;2023-09-18T20:33:08;24.10;55.50
32147;DHT22;32190;49.112;8.598;2023-09-18T20:38:58;23.90;55.60
32147;DHT22;32190;49.112;8.598;2023-09-18T20:44:49;23.80;55.70
32147;DHT22;32190;49.112;8.598;2023-09-18T20:50:39;23.80;55.80
32147;DHT22;32190;49.112;8.598;2023-09-18T20:56:30;23.80;55.90
32147;DHT22;32190;49.112;8.598;2023-09-18T21:02:21;23.70;55.90
32147;DHT22;32190;49.112;8.598;2023-09-18T21:08:12;23.60;56.00
32147;DHT22;32190;49.112;8.598;2023-09-18T21:14:03;23.60;55.90
32147;DHT22;32190;49.112;8.598;2023-09-18T21:19:54;23.50;56.00
32147;DHT22;32190;49.112;8.598;2023-09-18T21:25:48;23.50;56.10
32147;DHT22;32190;49.112;8.598;2023-09-18T21:31:39;23.50;56.40
32147;DHT22;32190;49.112;8.598;2023-09-18T21:37:30;23.40;56.20
32147;DHT22;32190;49.112;8.598;2023-09-18T21:43:21;23.50;56.30
32147;DHT22;32190;49.112;8.598;2023-09-18T21:49:11;23.40;56.20
32147;DHT22;32190;49.112;8.598;2023-09-18T21:55:02;23.40;56.30
32147;DHT22;32190;49.112;8.598;2023-09-18T22:01:01;23.40;56.40
32147;DHT22;32190;49.112;8.598;2023-09-18T22:06:54;23.30;56.50
32147;DHT22;32190;49.112;8.598;2023-09-18T22:12:45;23.30;56.30
32147;DHT22;32190;49.112;8.598;2023-09-18T22:18:35;23.30;56.40
32147;DHT22;32190;49.112;8.598;2023-09-18T22:24:26;23.30;56.40
32147;DHT22;32190;49.112;8.598;2023-09-18T22:30:16;23.30;56.50
32147;DHT22;32190;49.112;8.598;2023-09-18T22:36:09;23.20;56.50
32147;DHT22;32190;49.112;8.598;2023-09-18T23:00:13;23.20;56.60
32147;DHT22;32190;49.112;8.598;2023-09-18T23:06:05;23.10;56.70
32147;DHT22;32190;49.112;8.598;2023-09-18T23:11:57;23.10;56.60
32147;DHT22;32190;49.112;8.598;2023-09-18T23:17:47;23.10;56.90
32147;DHT22;32190;49.112;8.598;2023-09-18T23:23:40;23.00;56.80
32147;DHT22;32190;49.112;8.598;2023-09-18T23:29:32;23.00;57.00
32147;DHT22;32190;49.112;8.598;2023-09-18T23:35:23;23.00;57.00
32147;DHT22;32190;49.112;8.598;2023-09-18T23:41:14;23.00;57.00
32147;DHT22;32190;49.112;8.598;2023-09-18T23:47:06;23.00;57.00
32147;DHT22;32190;49.112;8.598;2023-09-18T23:52:58;23.00;57.00
32147;DHT22;32190;49.112;8.598;2023-09-18T23:58:51;23.00;57.10
